Time;durP1;ratioP1;P1;durP2;ratioP2;P2;SDS_P1;SDS_P2;PMS_P1;PMS_P2;Temp;Humidity;BMP_temperature;BMP_pressure;BME280_temperature;BME280_humidity;BME280_pressure;Samples;Min_cycle;Max_cycle;Signal;HPM_P1;HPM_P2
2023/08/15 00:00:54;;;;;;;0.50;0.40;;;21.80;99.90;;;;;;5076944;28;20473;-78
2023/08/15 00:03:21;;;;;;;0.50;0.30;;;21.70;99.90;;;;;;5076652;28;20443;-79
2023/08/15 00:05:47;;;;;;;0.50;0.30;;;21.70;99.90;;;;;;5076007;28;20435;-78
2023/08/15 00:08:14;;;;;;;0.50;0.30;;;21.60;99.90;;;;;;5075964;28;20441;-77
2023/08/15 00:10:41;;;;;;;0.50;0.30;;;21.60;99.90;;;;;;5076265;28;20443;-79
2023/08/15 00:13:09;;;;;;;0.50;0.30;;;21.60;99.90;;;;;;5077017;28;20484;-78
2023/08/15 00:15:36;;;;;;;0.50;0.30;;;21.50;99.90;;;;;;5076455;28;20440;-77
2023/08/15 00:18:03;;;;;;;0.50;0.30;;;21.50;99.90;;;;;;5076511;28;20445;-78
2023/08/15 00:20:30;;;;;;;0.50;0.30;;;21.50;99.90;;;;;;5076309;28;20440;-78
2023/08/15 00:22:56;;;;;;;0.50;0.30;;;21.40;99.90;;;;;;5077036;28;20462;-78
2023/08/15 00:25:23;;;;;;;0.50;0.40;;;21.40;99.90;;;;;;5076654;28;20451;-79
2023/08/15 00:27:50;;;;;;;0.50;0.47;;;21.40;99.90;;;;;;5076047;28;20831;-79
2023/08/15 00:30:18;;;;;;;0.50;0.30;;;21.30;99.90;;;;;;5076039;28;20454;-77
2023/08/15 00:32:46;;;;;;;0.50;0.30;;;21.30;99.90;;;;;;5076150;28;20473;-78
2023/08/15 00:35:13;;;;;;;0.50;0.40;;;21.30;99.90;;;;;;5076560;28;20971;-78
2023/08/15 00:37:40;;;;;;;0.50;0.40;;;21.20;99.90;;;;;;5075283;28;20443;-77
2023/08/15 00:40:08;;;;;;;0.50;0.37;;;21.20;99.90;;;;;;5076556;28;20454;-78
2023/08/15 00:42:35;;;;;;;0.50;0.30;;;21.20;99.90;;;;;;5075543;28;20546;-78
2023/08/15 00:45:01;;;;;;;0.50;0.40;;;21.10;99.90;;;;;;5075755;28;20457;-78
2023/08/15 00:47:31;;;;;;;0.50;0.40;;;21.10;99.90;;;;;;5075756;28;20470;-78
2023/08/15 00:49:58;;;;;;;0.50;0.30;;;21.10;99.90;;;;;;5076008;28;20454;-78
2023/08/15 00:52:25;;;;;;;0.50;0.40;;;21.10;99.90;;;;;;5075807;28;20467;-78
2023/08/15 00:54:54;;;;;;;0.50;0.30;;;21.10;99.90;;;;;;5076302;28;20490;-78
2023/08/15 00:57:22;;;;;;;0.50;0.40;;;21.00;99.90;;;;;;5075503;28;20457;-78
2023/08/15 00:59:49;;;;;;;0.50;0.30;;;21.00;99.90;;;;;;5076067;28;21061;-78
2023/08/15 01:02:16;;;;;;;0.50;0.30;;;21.00;99.90;;;;;;5076612;28;20461;-78
2023/08/15 01:04:44;;;;;;;0.50;0.30;;;21.00;99.90;;;;;;5075493;28;20526;-78
2023/08/15 01:07:12;;;;;;;0.50;0.30;;;21.00;99.90;;;;;;5075897;28;20443;-78
2023/08/15 01:09:39;;;;;;;0.50;0.30;;;20.90;99.90;;;;;;5075553;28;20451;-79
2023/08/15 01:12:17;;;;;;;0.50;0.40;;;20.90;99.90;;;;;;5075340;28;20549;-78
2023/08/15 01:14:51;;;;;;;0.50;0.30;;;20.90;99.90;;;;;;5067320;28;20565;-78
2023/08/15 01:17:25;;;;;;;0.50;0.50;;;21.00;99.90;;;;;;5075263;28;20447;-79
2023/08/15 01:19:55;;;;;;;0.50;0.30;;;20.90;99.90;;;;;;5068722;28;20533;-79
2023/08/15 01:22:24;;;;;;;0.50;0.30;;;20.90;99.90;;;;;;5075312;28;20459;-78
2023/08/15 01:24:53;;;;;;;0.50;0.30;;;20.90;99.90;;;;;;5075864;28;20856;-78
2023/08/15 01:27:20;;;;;;;0.50;0.30;;;21.00;99.90;;;;;;5075048;28;20446;-78
2023/08/15 01:29:48;;;;;;;0.50;0.30;;;21.00;99.90;;;;;;5068001;28;20467;-78
2023/08/15 01:32:21;;;;;;;0.50;0.37;;;21.00;99.90;;;;;;5075411;28;20473;-79
2023/08/15 01:34:54;;;;;;;0.50;0.33;;;20.90;99.90;;;;;;5067083;28;20854;-79
2023/08/15 01:37:28;;;;;;;0.50;0.40;;;21.00;99.90;;;;;;5076384;28;20526;-78
2023/08/15 01:39:58;;;;;;;0.80;0.80;;;21.00;99.90;;;;;;5068707;28;21062;-78
2023/08/15 01:42:27;;;;;;;0.50;0.40;;;21.00;99.90;;;;;;5074920;28;20892;-77
2023/08/15 01:44:54;;;;;;;0.50;0.40;;;21.00;99.90;;;;;;5075714;28;20440;-79
2023/08/15 01:47:22;;;;;;;0.50;0.30;;;21.00;99.90;;;;;;5075584;28;20445;-79
2023/08/15 01:49:49;;;;;;;0.50;0.30;;;21.10;99.90;;;;;;5067232;28;20442;-78
2023/08/15 01:52:16;;;;;;;0.50;0.30;;;21.10;99.90;;;;;;5075313;28;20459;-78
2023/08/15 01:54:43;;;;;;;0.50;0.30;;;21.10;99.90;;;;;;5074968;28;20475;-78
2023/08/15 01:57:11;;;;;;;0.50;0.30;;;21.10;99.90;;;;;;5075268;28;20956;-79
2023/08/15 01:59:38;;;;;;;0.50;0.40;;;21.10;99.90;;;;;;5075045;28;20447;-78
2023/08/15 02:02:06;;;;;;;0.50;0.30;;;21.20;99.90;;;;;;5075832;28;20466;-79
2023/08/15 02:04:34;;;;;;;0.50;0.30;;;21.20;99.90;;;;;;5075215;28;20531;-76
2023/08/15 02:07:00;;;;;;;0.50;0.30;;;21.20;99.90;;;;;;5075275;28;20448;-78
2023/08/15 02:09:27;;;;;;;0.50;0.40;;;21.20;99.90;;;;;;5075536;28;20444;-78
2023/08/15 02:11:54;;;;;;;0.50;0.30;;;21.30;99.90;;;;;;5075083;28;20463;-78
2023/08/15 02:14:22;;;;;;;0.50;0.30;;;21.30;99.90;;;;;;5074796;28;20479;-78
2023/08/15 02:16:49;;;;;;;0.50;0.30;;;21.30;99.90;;;;;;5074697;28;20530;-78
2023/08/15 02:19:15;;;;;;;0.50;0.30;;;21.30;99.90;;;;;;5075274;28;20443;-78
2023/08/15 02:21:42;;;;;;;0.50;0.30;;;21.40;99.90;;;;;;5076256;28;20467;-79
2023/08/15 02:24:09;;;;;;;0.50;0.30;;;21.50;99.90;;;;;;5075430;28;20442;-79
2023/08/15 02:26:36;;;;;;;0.50;0.30;;;21.60;99.90;;;;;;5075538;28;20439;-78
2023/08/15 02:29:03;;;;;;;0.50;0.30;;;21.60;99.90;;;;;;5075549;28;20461;-78
2023/08/15 02:31:32;;;;;;;0.80;0.60;;;21.60;99.90;;;;;;5078535;28;20459;-78
2023/08/15 02:33:58;;;;;;;0.50;0.47;;;21.70;99.90;;;;;;5079311;28;20474;-78
2023/08/15 02:36:25;;;;;;;0.50;0.30;;;21.70;99.90;;;;;;5078909;28;20513;-78
2023/08/15 02:38:52;;;;;;;0.50;0.30;;;21.80;99.90;;;;;;5078814;28;20443;-79
2023/08/15 02:41:20;;;;;;;0.50;0.30;;;21.80;99.90;;;;;;5072474;28;20488;-78
2023/08/15 02:43:46;;;;;;;0.50;0.40;;;21.90;99.90;;;;;;5075431;28;20443;-78
2023/08/15 02:46:13;;;;;;;0.50;0.50;;;21.90;99.90;;;;;;5078012;28;20463;-78
2023/08/15 02:48:41;;;;;;;0.50;0.30;;;22.00;99.90;;;;;;5078083;28;20449;-75
2023/08/15 02:51:08;;;;;;;0.50;0.40;;;22.00;99.90;;;;;;5077982;28;20459;-78
2023/08/15 02:53:35;;;;;;;0.50;0.30;;;22.00;99.90;;;;;;5077276;28;20522;-78
2023/08/15 02:56:02;;;;;;;0.50;0.30;;;22.00;99.90;;;;;;5077093;28;20443;-78
2023/08/15 02:58:29;;;;;;;0.50;0.30;;;22.00;99.90;;;;;;5077713;28;20437;-78
2023/08/15 03:00:56;;;;;;;0.60;0.53;;;22.00;99.90;;;;;;5069680;28;20459;-77
2023/08/15 03:03:23;;;;;;;0.50;0.30;;;22.00;99.90;;;;;;5077814;28;20526;-78
2023/08/15 03:05:51;;;;;;;0.50;0.40;;;22.00;99.90;;;;;;5076778;28;20445;-78
2023/08/15 03:08:17;;;;;;;0.50;0.40;;;21.90;99.90;;;;;;5077092;28;20442;-78
2023/08/15 03:10:44;;;;;;;0.50;0.40;;;21.80;99.90;;;;;;5076740;28;20453;-79
2023/08/15 03:13:11;;;;;;;0.50;0.40;;;21.80;99.90;;;;;;5078443;28;20436;-79
2023/08/15 03:15:38;;;;;;;0.50;0.30;;;21.70;99.90;;;;;;5077582;28;20480;-80
2023/08/15 03:18:05;;;;;;;0.50;0.40;;;21.70;99.90;;;;;;5077363;28;20501;-78
2023/08/15 03:20:32;;;;;;;0.50;0.40;;;21.60;99.90;;;;;;5077675;28;20504;-78
2023/08/15 03:23:00;;;;;;;0.50;0.30;;;21.60;99.90;;;;;;5076745;28;20450;-79
2023/08/15 03:25:27;;;;;;;0.50;0.40;;;21.50;99.90;;;;;;5076806;28;20434;-78
2023/08/15 03:27:54;;;;;;;0.53;0.50;;;21.50;99.90;;;;;;5075874;28;20804;-78
2023/08/15 03:30:21;;;;;;;1.13;1.03;;;21.40;99.90;;;;;;5076321;28;20434;-78
2023/08/15 03:32:47;;;;;;;0.50;0.40;;;21.40;99.90;;;;;;5068873;28;20479;-77
2023/08/15 03:35:14;;;;;;;0.50;0.40;;;21.30;99.90;;;;;;5075125;28;20484;-78
2023/08/15 03:37:42;;;;;;;0.50;0.30;;;21.20;99.90;;;;;;5074028;28;20443;-77
2023/08/15 03:40:11;;;;;;;2.30;1.23;;;21.20;99.90;;;;;;5073589;28;20439;-77
2023/08/15 03:42:38;;;;;;;0.50;0.40;;;21.10;99.90;;;;;;5073618;28;20811;-78
2023/08/15 03:45:06;;;;;;;0.77;0.77;;;21.00;99.90;;;;;;5073614;28;20442;-77
2023/08/15 03:47:32;;;;;;;0.50;0.40;;;21.00;99.90;;;;;;5073012;28;20443;-78
2023/08/15 03:49:59;;;;;;;0.70;0.40;;;20.90;99.90;;;;;;5073263;28;20521;-77
2023/08/15 03:52:26;;;;;;;0.50;0.37;;;20.80;99.90;;;;;;5073551;28;20217;-78
2023/08/15 03:54:52;;;;;;;0.50;0.30;;;20.80;99.90;;;;;;5067204;28;20478;-78
2023/08/15 03:57:21;;;;;;;0.70;0.70;;;20.70;99.90;;;;;;5072063;28;20448;-78
2023/08/15 03:59:47;;;;;;;0.50;0.30;;;20.70;99.90;;;;;;5072855;28;20534;-77
2023/08/15 04:02:14;;;;;;;0.50;0.30;;;20.60;99.90;;;;;;5075153;28;20459;-78
2023/08/15 04:04:41;;;;;;;0.50;0.30;;;20.60;99.90;;;;;;5074223;28;20427;-78
2023/08/15 04:07:08;;;;;;;4.73;1.07;;;20.60;99.90;;;;;;5074392;28;20435;-78
2023/08/15 04:09:34;;;;;;;0.50;0.30;;;20.60;99.90;;;;;;5075162;28;20513;-78
2023/08/15 04:12:01;;;;;;;0.50;0.40;;;20.50;99.90;;;;;;5074993;28;20455;-78
2023/08/15 04:14:29;;;;;;;0.50;0.40;;;20.50;99.90;;;;;;5073373;28;20485;-78
2023/08/15 04:16:56;;;;;;;0.50;0.40;;;20.50;99.90;;;;;;5073232;28;20443;-78
2023/08/15 04:19:23;;;;;;;0.80;0.80;;;20.50;99.90;;;;;;5073909;28;20447;-79
2023/08/15 04:21:49;;;;;;;1.30;1.20;;;20.40;99.90;;;;;;5073686;28;20465;-79
2023/08/15 04:24:18;;;;;;;0.50;0.40;;;20.40;99.90;;;;;;5073261;28;20505;-78
2023/08/15 04:26:45;;;;;;;0.50;0.30;;;20.40;99.90;;;;;;5072583;28;20451;-77
2023/08/15 04:29:11;;;;;;;1.60;1.50;;;20.40;99.90;;;;;;5073625;28;20444;-79
2023/08/15 04:31:41;;;;;;;0.60;0.50;;;20.30;99.90;;;;;;5073143;28;20463;-77
2023/08/15 04:34:08;;;;;;;0.50;0.30;;;20.30;99.90;;;;;;5064995;28;20474;-77
2023/08/15 04:36:35;;;;;;;0.50;0.30;;;20.30;99.90;;;;;;5072460;28;20814;-78
2023/08/15 04:39:02;;;;;;;0.50;0.40;;;20.20;99.90;;;;;;5072252;28;20442;-78
2023/08/15 04:41:29;;;;;;;0.50;0.30;;;20.20;99.90;;;;;;5072433;28;21071;-77
2023/08/15 04:43:55;;;;;;;0.63;0.63;;;20.20;99.90;;;;;;5071894;28;20821;-78
2023/08/15 04:46:22;;;;;;;0.50;0.30;;;20.10;99.90;;;;;;5071980;28;20426;-78
2023/08/15 04:48:50;;;;;;;0.70;0.60;;;20.10;99.90;;;;;;5071974;28;20442;-77
2023/08/15 04:51:17;;;;;;;0.97;0.90;;;20.10;99.90;;;;;;5072031;28;20466;-77
2023/08/15 04:53:44;;;;;;;0.50;0.30;;;20.10;99.90;;;;;;5071294;28;20803;-77
2023/08/15 04:56:12;;;;;;;0.60;0.60;;;20.10;99.90;;;;;;5071854;28;20470;-79
2023/08/15 04:58:39;;;;;;;0.50;0.40;;;20.10;99.90;;;;;;5071849;28;20475;-78
2023/08/15 05:01:06;;;;;;;0.50;0.30;;;20.10;99.90;;;;;;5071181;28;20455;-78
2023/08/15 05:03:33;;;;;;;0.50;0.30;;;20.10;99.90;;;;;;5070311;28;20449;-77
2023/08/15 05:06:02;;;;;;;1.07;1.03;;;20.10;99.90;;;;;;5071212;28;20443;-75
2023/08/15 05:08:29;;;;;;;0.50;0.40;;;20.10;99.90;;;;;;5071539;28;20814;-76
2023/08/15 05:10:55;;;;;;;0.50;0.30;;;20.10;99.90;;;;;;5071641;28;20463;-78
2023/08/15 05:13:23;;;;;;;0.50;0.40;;;20.10;99.90;;;;;;5071659;28;20818;-78
2023/08/15 05:15:50;;;;;;;0.50;0.30;;;20.10;99.90;;;;;;5070955;28;20570;-78
2023/08/15 05:18:17;;;;;;;0.50;0.30;;;20.10;99.90;;;;;;5071409;28;20456;-78
2023/08/15 05:20:47;;;;;;;0.50;0.40;;;20.10;99.90;;;;;;5071253;28;20448;-77
2023/08/15 05:23:15;;;;;;;0.50;0.40;;;20.10;99.90;;;;;;5071376;28;20819;-78
2023/08/15 05:25:43;;;;;;;0.50;0.30;;;20.10;99.90;;;;;;5071395;28;20441;-78
2023/08/15 05:28:10;;;;;;;0.50;0.30;;;20.10;99.90;;;;;;5071470;28;20438;-78
2023/08/15 05:30:37;;;;;;;0.50;0.30;;;20.00;99.90;;;;;;5070927;28;20918;-78
2023/08/15 05:33:04;;;;;;;0.50;0.40;;;20.10;99.90;;;;;;5070979;28;20431;-78
2023/08/15 05:35:31;;;;;;;0.50;0.30;;;20.00;99.90;;;;;;5071060;28;20482;-78
2023/08/15 05:37:58;;;;;;;0.50;0.40;;;20.00;99.90;;;;;;5070634;28;20450;-78
2023/08/15 05:40:26;;;;;;;0.50;0.40;;;20.10;99.90;;;;;;5071360;28;20442;-78
2023/08/15 05:42:53;;;;;;;0.50;0.40;;;20.00;99.90;;;;;;5070454;28;20549;-77
2023/08/15 05:45:20;;;;;;;0.50;0.40;;;20.10;99.90;;;;;;5070629;28;20443;-78
2023/08/15 05:47:47;;;;;;;0.50;0.30;;;20.10;99.90;;;;;;5070253;28;20980;-78
2023/08/15 05:50:14;;;;;;;0.97;0.97;;;20.10;99.90;;;;;;5071110;28;20869;-77
2023/08/15 05:52:40;;;;;;;0.50;0.30;;;20.10;99.90;;;;;;5070617;28;20473;-77
2023/08/15 05:55:08;;;;;;;0.50;0.30;;;20.10;99.90;;;;;;5070150;28;20482;-77
2023/08/15 05:57:36;;;;;;;0.50;0.30;;;20.10;99.90;;;;;;5070446;28;20443;-78
2023/08/15 06:00:04;;;;;;;0.50;0.30;;;20.20;99.90;;;;;;5070219;28;20443;-78
2023/08/15 06:02:34;;;;;;;0.73;0.73;;;20.20;99.90;;;;;;5070806;28;20553;-77
2023/08/15 06:05:01;;;;;;;0.50;0.30;;;20.30;99.90;;;;;;5073604;28;20447;-76
2023/08/15 06:07:28;;;;;;;0.50;0.30;;;20.30;99.90;;;;;;5074409;28;20441;-78
2023/08/15 06:09:55;;;;;;;0.50;0.40;;;20.30;99.90;;;;;;5074605;28;20447;-78
2023/08/15 06:12:22;;;;;;;4.10;1.90;;;20.40;99.90;;;;;;5074500;28;20462;-78
2023/08/15 06:14:50;;;;;;;0.50;0.40;;;20.50;99.90;;;;;;5074506;28;20447;-76
2023/08/15 06:17:17;;;;;;;0.90;0.60;;;20.50;99.90;;;;;;5074372;28;20442;-77
2023/08/15 06:19:44;;;;;;;0.50;0.30;;;20.50;99.90;;;;;;5074397;28;20503;-74
2023/08/15 06:22:10;;;;;;;0.50;0.40;;;20.60;99.90;;;;;;5073853;28;20472;-77
2023/08/15 06:24:37;;;;;;;0.60;0.47;;;20.60;99.90;;;;;;5074226;28;20442;-76
2023/08/15 06:27:04;;;;;;;1.63;1.03;;;20.60;99.90;;;;;;5073474;28;20449;-78
2023/08/15 06:29:31;;;;;;;0.50;0.30;;;20.60;99.90;;;;;;5074237;28;20453;-78
2023/08/15 06:31:59;;;;;;;0.60;0.60;;;20.60;99.90;;;;;;5073681;28;20546;-78
2023/08/15 06:34:26;;;;;;;0.50;0.40;;;20.60;99.90;;;;;;5074299;28;20624;-78
2023/08/15 06:36:54;;;;;;;0.50;0.33;;;20.60;99.90;;;;;;5073585;28;20985;-77
2023/08/15 06:39:21;;;;;;;0.50;0.40;;;20.70;99.90;;;;;;5074676;28;20446;-78
2023/08/15 06:41:48;;;;;;;0.50;0.30;;;20.70;99.90;;;;;;5074619;28;20493;-78
2023/08/15 06:44:14;;;;;;;2.43;1.83;;;20.70;99.90;;;;;;5073821;28;20439;-77
2023/08/15 06:46:41;;;;;;;1.10;0.43;;;20.70;99.90;;;;;;5074182;28;20435;-76
2023/08/15 06:49:09;;;;;;;2.93;1.37;;;20.70;99.90;;;;;;5073991;28;20435;-78
2023/08/15 06:51:36;;;;;;;0.53;0.53;;;20.70;99.90;;;;;;5073584;28;20966;-78
2023/08/15 06:54:04;;;;;;;0.50;0.40;;;20.80;99.90;;;;;;5073702;28;20972;-77
2023/08/15 06:56:30;;;;;;;0.50;0.30;;;20.80;99.90;;;;;;5073908;28;20815;-79
2023/08/15 06:58:57;;;;;;;1.17;1.17;;;20.80;99.90;;;;;;5073439;28;20814;-78
2023/08/15 07:01:24;;;;;;;0.73;0.73;;;21.00;99.90;;;;;;5073385;28;20992;-78
2023/08/15 07:03:51;;;;;;;0.50;0.40;;;21.00;99.90;;;;;;5073332;28;20473;-77
2023/08/15 07:06:19;;;;;;;0.50;0.50;;;21.00;99.90;;;;;;5065847;28;20455;-78
2023/08/15 07:08:47;;;;;;;0.50;0.40;;;21.00;99.90;;;;;;5075275;28;20467;-78
2023/08/15 07:11:14;;;;;;;0.50;0.40;;;21.00;99.90;;;;;;5073728;28;20467;-78
2023/08/15 07:13:40;;;;;;;0.50;0.30;;;20.90;99.90;;;;;;5073575;28;20961;-78
2023/08/15 07:16:07;;;;;;;0.50;0.30;;;20.90;99.90;;;;;;5073692;28;20488;-78
2023/08/15 07:18:34;;;;;;;0.50;0.30;;;21.00;99.90;;;;;;5073603;28;20436;-77
2023/08/15 07:21:02;;;;;;;0.50;0.30;;;21.00;99.90;;;;;;5073232;28;20459;-78
2023/08/15 07:23:30;;;;;;;0.50;0.40;;;21.10;99.90;;;;;;5073836;28;20455;-77
2023/08/15 07:25:57;;;;;;;2.73;2.53;;;21.10;99.90;;;;;;5073522;28;20984;-78
2023/08/15 07:28:24;;;;;;;0.50;0.30;;;21.10;99.90;;;;;;5073154;28;20783;-77
2023/08/15 07:30:51;;;;;;;0.50;0.30;;;21.10;99.90;;;;;;5072899;28;20470;-78
2023/08/15 07:33:17;;;;;;;0.50;0.30;;;21.20;99.90;;;;;;5072984;28;20435;-78
2023/08/15 07:35:44;;;;;;;0.50;0.30;;;21.30;99.90;;;;;;5077137;28;20478;-78
2023/08/15 07:38:13;;;;;;;0.50;0.30;;;21.30;99.90;;;;;;5075457;28;20453;-79
2023/08/15 07:40:43;;;;;;;0.60;0.60;;;21.40;99.90;;;;;;5079013;28;20498;-80
2023/08/15 07:43:10;;;;;;;0.50;0.40;;;21.50;99.90;;;;;;5072773;28;20853;-78
2023/08/15 07:45:37;;;;;;;0.50;0.50;;;21.50;99.90;;;;;;5077046;28;20449;-80
2023/08/15 07:48:05;;;;;;;0.50;0.30;;;21.60;99.90;;;;;;5072564;28;20436;-78
2023/08/15 07:50:32;;;;;;;0.50;0.40;;;21.90;99.90;;;;;;5072587;28;20442;-75
2023/08/15 07:52:59;;;;;;;1.37;1.37;;;22.00;99.90;;;;;;5073858;28;20436;-76
2023/08/15 07:55:27;;;;;;;0.60;0.60;;;22.10;99.90;;;;;;5072861;28;20474;-78
2023/08/15 07:57:55;;;;;;;0.50;0.33;;;22.30;99.90;;;;;;5073046;28;20826;-78
2023/08/15 08:00:22;;;;;;;1.37;1.27;;;23.40;99.90;;;;;;5074216;28;20924;-78
2023/08/15 08:02:49;;;;;;;0.50;0.40;;;24.50;99.90;;;;;;5073730;28;20473;-78
2023/08/15 08:05:16;;;;;;;0.50;0.40;;;25.20;99.90;;;;;;5072683;28;20445;-78
2023/08/15 08:07:44;;;;;;;0.50;0.30;;;25.40;99.90;;;;;;5072118;28;20437;-75
2023/08/15 08:10:11;;;;;;;0.50;0.30;;;25.20;99.90;;;;;;5072641;28;20955;-77
2023/08/15 08:12:38;;;;;;;0.50;0.30;;;25.60;99.90;;;;;;5072870;28;20465;-77
2023/08/15 08:15:08;;;;;;;0.50;0.30;;;26.10;99.90;;;;;;5072589;28;20434;-78
2023/08/15 08:17:35;;;;;;;0.50;0.30;;;26.80;99.90;;;;;;5073306;28;20447;-79
2023/08/15 08:20:02;;;;;;;1.10;1.00;;;27.40;99.90;;;;;;5074089;28;20439;-78
2023/08/15 08:22:28;;;;;;;0.50;0.30;;;27.30;99.90;;;;;;5074618;28;20466;-78
2023/08/15 08:24:55;;;;;;;0.50;0.30;;;27.00;99.90;;;;;;5074137;28;20447;-79
2023/08/15 08:27:22;;;;;;;0.50;0.30;;;26.80;99.90;;;;;;5073584;28;20434;-78
2023/08/15 08:29:49;;;;;;;0.50;0.30;;;26.80;99.90;;;;;;5074893;28;20437;-78
2023/08/15 08:32:18;;;;;;;0.50;0.30;;;26.80;99.90;;;;;;5074801;28;20462;-78
2023/08/15 08:34:44;;;;;;;0.50;0.30;;;26.60;99.90;;;;;;5075012;28;20446;-77
2023/08/15 08:37:11;;;;;;;0.50;0.30;;;26.20;99.90;;;;;;5074577;28;20470;-79
2023/08/15 08:39:38;;;;;;;0.50;0.30;;;26.10;99.90;;;;;;5074351;28;20434;-78
2023/08/15 08:42:05;;;;;;;0.50;0.37;;;26.30;99.90;;;;;;5074547;28;20472;-78
2023/08/15 08:44:33;;;;;;;0.50;0.40;;;27.20;99.90;;;;;;5075580;28;20434;-79
2023/08/15 08:47:00;;;;;;;1.17;0.50;;;28.00;99.90;;;;;;5075623;28;20473;-79
2023/08/15 08:49:30;;;;;;;0.50;0.30;;;28.70;99.90;;;;;;5068064;28;20435;-78
2023/08/15 08:51:58;;;;;;;0.50;0.30;;;29.40;99.90;;;;;;5076416;28;20455;-79
2023/08/15 08:54:25;;;;;;;0.50;0.30;;;29.70;99.90;;;;;;5075868;28;20455;-79
2023/08/15 08:56:54;;;;;;;0.77;0.77;;;29.90;99.90;;;;;;5075959;28;20932;-79
2023/08/15 08:59:23;;;;;;;0.80;0.60;;;30.50;99.90;;;;;;5076324;28;20926;-79
2023/08/15 09:01:51;;;;;;;0.50;0.30;;;30.90;99.90;;;;;;5076442;28;20474;-79
2023/08/15 09:04:19;;;;;;;0.50;0.30;;;31.00;99.90;;;;;;5076322;28;20518;-78
2023/08/15 09:06:47;;;;;;;0.50;0.30;;;30.80;99.90;;;;;;5076846;28;20439;-79
2023/08/15 09:09:14;;;;;;;0.50;0.30;;;30.60;99.90;;;;;;5076617;28;20447;-79
2023/08/15 09:11:41;;;;;;;0.50;0.30;;;30.40;99.90;;;;;;5076525;28;20455;-79
2023/08/15 09:14:08;;;;;;;0.50;0.30;;;31.10;99.90;;;;;;5076557;28;20439;-79
2023/08/15 09:16:45;;;;;;;0.50;0.40;;;31.80;99.90;;;;;;5077689;28;20468;-79
2023/08/15 09:19:12;;;;;;;0.50;0.30;;;31.60;99.20;;;;;;5077902;28;20453;-79
2023/08/15 09:21:38;;;;;;;0.50;0.30;;;31.90;99.30;;;;;;5078169;28;20955;-79
2023/08/15 09:24:08;;;;;;;0.50;0.30;;;32.20;99.90;;;;;;5077719;28;20471;-77
2023/08/15 09:26:35;;;;;;;0.50;0.30;;;32.90;99.30;;;;;;5078733;28;20957;-78
2023/08/15 09:29:03;;;;;;;0.50;0.30;;;33.80;95.70;;;;;;5078357;28;20433;-78
2023/08/15 09:31:30;;;;;;;0.40;0.30;;;34.40;89.50;;;;;;5078399;28;20458;-80
2023/08/15 09:33:57;;;;;;;0.40;0.30;;;34.50;87.10;;;;;;5078321;28;20437;-80
2023/08/15 09:36:25;;;;;;;0.40;0.30;;;34.20;90.90;;;;;;5077490;28;20472;-79
2023/08/15 09:38:52;;;;;;;0.40;0.30;;;33.70;86.20;;;;;;5077043;28;20443;-79
2023/08/15 09:41:24;;;;;;;0.50;0.30;;;33.20;86.10;;;;;;5076745;28;20461;-79
2023/08/15 09:43:52;;;;;;;0.50;0.30;;;33.20;88.10;;;;;;5077393;28;20436;-79
2023/08/15 09:46:19;;;;;;;0.50;0.30;;;33.80;84.70;;;;;;5076967;28;20520;-79
2023/08/15 09:48:47;;;;;;;0.40;0.30;;;33.60;85.20;;;;;;5077142;28;20531;-79
2023/08/15 09:51:16;;;;;;;0.40;0.30;;;33.70;88.00;;;;;;5077443;28;20475;-79
2023/08/15 09:53:43;;;;;;;0.47;0.30;;;33.00;84.60;;;;;;5077251;28;20502;-79
2023/08/15 09:56:10;;;;;;;0.50;0.30;;;33.00;82.70;;;;;;5077418;28;20525;-78
2023/08/15 09:58:39;;;;;;;0.40;0.30;;;32.70;84.20;;;;;;5078512;28;20621;-78
2023/08/15 10:01:07;;;;;;;1.43;1.13;;;33.00;82.90;;;;;;5077321;28;20568;-79
2023/08/15 10:03:36;;;;;;;0.50;0.40;;;33.30;85.60;;;;;;5078078;28;20428;-77
2023/08/15 10:06:04;;;;;;;0.40;0.30;;;33.90;84.60;;;;;;5077710;28;20425;-77
2023/08/15 10:08:32;;;;;;;0.40;0.30;;;34.10;80.30;;;;;;5077130;28;20487;-78
2023/08/15 10:10:59;;;;;;;0.50;0.30;;;33.80;81.90;;;;;;5076232;28;20460;-79
2023/08/15 10:13:31;;;;;;;0.40;0.30;;;33.90;82.30;;;;;;5077378;28;20429;-79
2023/08/15 10:16:00;;;;;;;0.43;0.30;;;34.80;82.00;;;;;;5077989;28;20514;-80
2023/08/15 10:18:27;;;;;;;0.40;0.30;;;34.60;81.80;;;;;;5077550;28;20891;-80
2023/08/15 10:20:56;;;;;;;0.40;0.30;;;34.80;81.50;;;;;;5077800;28;20467;-79
2023/08/15 10:23:28;;;;;;;0.40;0.30;;;35.50;82.60;;;;;;5076898;28;20455;-78
2023/08/15 10:25:55;;;;;;;0.80;0.80;;;35.10;77.60;;;;;;5076526;28;20444;-79
2023/08/15 10:28:22;;;;;;;0.40;0.30;;;35.00;82.80;;;;;;5075666;28;20523;-79
2023/08/15 10:30:50;;;;;;;0.40;0.30;;;34.80;81.50;;;;;;5076446;28;20429;-80
2023/08/15 10:33:20;;;;;;;0.43;0.37;;;35.10;77.80;;;;;;5077522;28;20888;-79
2023/08/15 10:36:06;;;;;;;0.40;0.30;;;35.10;73.30;;;;;;5076334;28;20435;-80
2023/08/15 10:38:36;;;;;;;0.40;0.30;;;34.90;77.70;;;;;;5076829;28;20439;-80
2023/08/15 10:41:05;;;;;;;13.57;3.07;;;35.00;82.30;;;;;;5076468;28;20453;-80
2023/08/15 10:43:33;;;;;;;0.40;0.30;;;34.40;75.80;;;;;;5076560;28;20483;-79
2023/08/15 10:46:02;;;;;;;0.40;0.30;;;34.20;78.90;;;;;;5076431;28;20467;-80
2023/08/15 10:48:44;;;;;;;1.33;1.23;;;34.80;77.80;;;;;;5076521;28;20436;-79
2023/08/15 10:51:18;;;;;;;0.40;0.30;;;34.90;75.50;;;;;;5077141;28;20887;-80
2023/08/15 10:53:46;;;;;;;0.40;0.30;;;34.90;75.80;;;;;;5079189;28;20441;-79
2023/08/15 10:56:13;;;;;;;0.40;0.30;;;34.90;79.10;;;;;;5079412;28;20433;-79
2023/08/15 10:58:40;;;;;;;0.60;0.60;;;35.00;79.20;;;;;;5080284;28;20471;-80
2023/08/15 11:01:07;;;;;;;0.40;0.30;;;34.80;77.80;;;;;;5080034;28;20472;-79
2023/08/15 11:03:35;;;;;;;0.40;0.30;;;34.50;75.30;;;;;;5079279;28;20448;-80
2023/08/15 11:06:11;;;;;;;0.50;0.30;;;33.80;77.60;;;;;;5078903;28;20456;-78
2023/08/15 11:08:42;;;;;;;0.50;0.30;;;33.00;80.50;;;;;;5079016;28;20505;-79
2023/08/15 11:11:09;;;;;;;0.50;0.30;;;32.00;81.70;;;;;;5078778;28;20456;-79
2023/08/15 11:13:40;;;;;;;0.50;0.30;;;31.50;88.20;;;;;;5078741;28;20444;-79
2023/08/15 11:16:08;;;;;;;0.50;0.30;;;31.20;85.70;;;;;;5078803;28;20433;-79
2023/08/15 11:18:36;;;;;;;0.50;0.30;;;30.90;89.30;;;;;;5078107;28;20441;-80
2023/08/15 11:21:03;;;;;;;3.37;1.40;;;30.90;90.60;;;;;;5068654;28;20477;-79
2023/08/15 11:23:32;;;;;;;0.50;0.30;;;31.20;90.10;;;;;;5080547;28;20441;-79
2023/08/15 11:26:03;;;;;;;0.50;0.40;;;31.00;87.00;;;;;;5077974;28;20894;-79
2023/08/15 11:28:30;;;;;;;0.50;0.30;;;30.60;86.60;;;;;;5076364;28;20448;-79
2023/08/15 11:30:57;;;;;;;0.50;0.40;;;30.60;90.70;;;;;;5079154;28;20824;-80
2023/08/15 11:33:25;;;;;;;0.60;0.60;;;30.50;88.10;;;;;;5078720;28;20432;-80
2023/08/15 11:35:52;;;;;;;0.50;0.30;;;29.90;88.70;;;;;;5080961;28;20498;-80
2023/08/15 11:38:19;;;;;;;0.50;0.30;;;29.50;89.80;;;;;;5083129;28;20476;-80
2023/08/15 11:40:48;;;;;;;0.50;0.30;;;29.30;90.70;;;;;;5083346;28;20435;-80
2023/08/15 11:43:15;;;;;;;0.50;0.30;;;29.30;90.80;;;;;;5083384;28;20443;-79
2023/08/15 11:45:44;;;;;;;0.50;0.30;;;29.30;92.20;;;;;;5083128;28;21073;-78
2023/08/15 11:48:11;;;;;;;0.50;0.30;;;29.60;92.30;;;;;;5080940;28;20500;-80
2023/08/15 11:50:40;;;;;;;0.50;0.30;;;30.20;94.80;;;;;;5081309;28;20438;-79
2023/08/15 11:53:09;;;;;;;0.50;0.30;;;30.60;91.70;;;;;;5080332;28;20454;-81
2023/08/15 11:55:36;;;;;;;0.50;0.30;;;30.30;91.00;;;;;;5081219;28;20799;-81
2023/08/15 11:58:21;;;;;;;0.50;0.33;;;30.50;92.30;;;;;;5079362;28;20501;-79
2023/08/15 12:00:48;;;;;;;0.50;0.30;;;30.90;91.20;;;;;;5078342;28;20446;-79
2023/08/15 12:03:16;;;;;;;0.60;0.30;;;30.70;93.40;;;;;;5078548;28;20435;-79
2023/08/15 12:05:46;;;;;;;0.50;0.30;;;30.20;93.10;;;;;;5079014;28;20460;-79
2023/08/15 12:08:15;;;;;;;0.50;0.30;;;30.30;94.30;;;;;;5079115;28;20436;-79
2023/08/15 12:10:42;;;;;;;0.50;0.30;;;30.00;94.00;;;;;;5078230;28;20512;-79
2023/08/15 12:13:10;;;;;;;0.50;0.30;;;29.80;94.60;;;;;;5078560;28;20441;-79
2023/08/15 12:15:37;;;;;;;0.50;0.30;;;29.40;97.00;;;;;;5078540;28;20592;-79
2023/08/15 12:18:05;;;;;;;0.50;0.30;;;29.00;97.20;;;;;;5077739;28;20569;-79
2023/08/15 12:20:32;;;;;;;0.50;0.30;;;28.60;99.90;;;;;;5078843;28;20447;-79
2023/08/15 12:22:59;;;;;;;0.50;0.30;;;28.40;99.90;;;;;;5077593;28;20438;-79
2023/08/15 12:25:27;;;;;;;0.50;0.30;;;28.10;99.90;;;;;;5077841;28;20471;-79
2023/08/15 12:27:54;;;;;;;0.50;0.30;;;28.20;99.90;;;;;;5077365;28;20926;-79
2023/08/15 12:30:22;;;;;;;0.50;0.30;;;29.00;99.90;;;;;;5079252;28;20435;-80
2023/08/15 12:32:49;;;;;;;0.50;0.40;;;30.30;99.90;;;;;;5079230;28;20546;-79
2023/08/15 12:35:16;;;;;;;0.50;0.30;;;31.20;99.90;;;;;;5078339;28;20433;-79
2023/08/15 12:37:42;;;;;;;0.50;0.30;;;31.40;98.50;;;;;;5077587;28;20854;-79
2023/08/15 12:40:10;;;;;;;0.50;0.30;;;30.90;95.50;;;;;;5077914;28;20439;-79
2023/08/15 12:42:36;;;;;;;0.50;0.30;;;30.20;96.80;;;;;;5078031;28;20536;-76
2023/08/15 12:45:04;;;;;;;0.50;0.30;;;29.90;99.70;;;;;;5078374;28;20449;-79
2023/08/15 12:47:32;;;;;;;0.50;0.30;;;29.60;98.40;;;;;;5077293;28;20459;-79
2023/08/15 12:49:59;;;;;;;0.50;0.30;;;29.20;98.90;;;;;;5077810;28;20532;-78